Time;durP1;ratioP1;P1;durP2;ratioP2;P2;SDS_P1;SDS_P2;PMS_P1;PMS_P2;Temp;Humidity;BMP_temperature;BMP_pressure;BME280_temperature;BME280_humidity;BME280_pressure;Samples;Min_cycle;Max_cycle;Signal;HPM_P1;HPM_P2
2023/09/12 00:01:19;;;;;;;19.75;16.67;;;;;;;23.31;65.65;101273.53;5111050;28;20024;-77
2023/09/12 00:03:44;;;;;;;21.25;18.13;;;;;;;23.16;65.59;101230.16;5107948;28;20032;-77
2023/09/12 00:06:10;;;;;;;17.58;15.77;;;;;;;23.38;65.58;101263.59;5106699;28;20028;-77
2023/09/12 00:08:35;;;;;;;16.77;14.88;;;;;;;23.38;65.59;101269.03;5110122;28;20093;-77
2023/09/12 00:11:04;;;;;;;19.13;17.13;;;;;;;23.38;65.46;101271.75;5090982;28;20027;-77
2023/09/12 00:13:31;;;;;;;19.10;16.35;;;;;;;23.20;65.53;101234.16;5109588;27;20028;-77
2023/09/12 00:15:56;;;;;;;18.42;16.50;;;;;;;23.17;65.44;101223.69;5103350;28;20080;-77
2023/09/12 00:18:22;;;;;;;18.75;15.90;;;;;;;23.40;65.44;101263.41;5099891;28;20016;-77
2023/09/12 00:20:47;;;;;;;18.23;15.25;;;;;;;23.15;65.34;101222.19;5109262;28;20031;-77
2023/09/12 00:23:12;;;;;;;16.08;14.38;;;;;;;23.28;65.60;101246.78;5110683;28;20024;-77
2023/09/12 00:25:37;;;;;;;16.60;14.90;;;;;;;23.24;65.38;101236.50;5122677;28;20495;-77
2023/09/12 00:28:03;;;;;;;15.20;13.68;;;;;;;23.39;65.07;101265.28;5108880;28;20024;-77
2023/09/12 00:30:28;;;;;;;15.85;14.18;;;;;;;23.39;65.37;101254.44;5112065;28;20050;-77
2023/09/12 00:32:54;;;;;;;17.58;15.73;;;;;;;23.38;65.38;101241.06;5106072;28;20545;-77
2023/09/12 00:35:19;;;;;;;18.48;16.58;;;;;;;23.39;65.39;101238.16;5107864;28;20024;-77
2023/09/12 00:37:44;;;;;;;18.75;15.50;;;;;;;23.18;65.42;101203.66;5106207;28;20030;-77
2023/09/12 00:40:10;;;;;;;20.10;16.73;;;;;;;23.25;65.37;101208.34;5112598;28;20115;-77
2023/09/12 00:42:35;;;;;;;18.23;16.15;;;;;;;23.31;65.44;101227.41;5106756;28;20023;-77
2023/09/12 00:45:01;;;;;;;17.35;15.55;;;;;;;23.33;65.29;101238.09;5116727;28;20545;-77
2023/09/12 00:47:27;;;;;;;17.80;15.90;;;;;;;23.27;65.24;101239.66;5112282;28;20080;-77
2023/09/12 00:49:53;;;;;;;19.00;15.65;;;;;;;23.27;65.28;101231.53;5104996;28;20021;-77
2023/09/12 00:52:19;;;;;;;17.55;15.70;;;;;;;23.40;65.31;101249.84;5103036;28;20019;-77
2023/09/12 00:54:44;;;;;;;17.58;15.27;;;;;;;23.25;65.26;101219.19;5111861;28;20047;-77
2023/09/12 00:57:09;;;;;;;19.55;15.98;;;;;;;23.31;65.52;101232.00;5110902;28;20026;-77
2023/09/12 00:59:35;;;;;;;16.35;14.65;;;;;;;23.34;65.38;101248.72;5105263;28;20036;-77
2023/09/12 01:02:01;;;;;;;17.42;14.73;;;;;;;23.41;65.37;101267.81;5108937;28;20036;-77
2023/09/12 01:04:27;;;;;;;16.48;14.50;;;;;;;23.28;65.11;101249.50;5112222;28;20034;-77
2023/09/12 01:06:52;;;;;;;16.42;14.63;;;;;;;23.30;65.32;101252.03;5114985;28;20031;-77
2023/09/12 01:09:17;;;;;;;16.60;14.13;;;;;;;23.26;65.25;101254.25;5107167;28;20520;-77
2023/09/12 01:11:43;;;;;;;16.63;14.40;;;;;;;23.20;65.18;101246.91;5114854;28;20034;-77
2023/09/12 01:14:08;;;;;;;16.48;14.77;;;;;;;23.41;65.08;101276.81;5115162;27;20020;-77
2023/09/12 01:16:33;;;;;;;14.77;13.18;;;;;;;23.20;64.91;101241.47;5110192;28;20053;-77
2023/09/12 01:18:58;;;;;;;15.57;14.07;;;;;;;23.40;65.07;101280.53;5117342;28;20140;-76
2023/09/12 01:21:48;;;;;;;15.57;13.73;;;;;;;23.41;65.23;101287.66;5122967;28;20045;-76
2023/09/12 01:24:40;;;;;;;15.10;13.55;;;;;;;23.41;64.91;101284.09;5111303;28;20042;-77
2023/09/12 01:27:28;;;;;;;15.05;13.50;;;;;;;23.41;64.93;101273.25;5078077;28;20058;-77
2023/09/12 01:29:56;;;;;;;14.38;12.82;;;;;;;23.40;64.82;101269.66;5037691;28;20120;-77
2023/09/12 01:32:22;;;;;;;12.98;11.68;;;;;;;23.21;64.82;101232.28;5063562;28;20090;-77
2023/09/12 01:34:47;;;;;;;15.52;13.52;;;;;;;23.40;64.92;101258.81;5058801;28;20781;-77
2023/09/12 01:37:13;;;;;;;15.77;13.45;;;;;;;23.30;64.63;101235.75;5051912;28;20028;-76
2023/09/12 01:39:39;;;;;;;15.20;13.60;;;;;;;23.29;64.54;101236.78;5063291;28;20036;-77
2023/09/12 01:42:05;;;;;;;15.00;13.00;;;;;;;23.23;64.84;101226.66;5056652;28;20024;-77
2023/09/12 01:44:31;;;;;;;13.48;12.07;;;;;;;23.32;64.66;101242.66;5069109;28;20086;-77
2023/09/12 01:47:01;;;;;;;14.18;12.52;;;;;;;23.40;64.64;101247.97;5061860;28;20034;-77
2023/09/12 01:49:27;;;;;;;14.68;13.18;;;;;;;23.36;64.90;101238.53;5054478;28;20028;-76
2023/09/12 01:51:53;;;;;;;13.77;12.38;;;;;;;23.41;64.57;101252.38;5054292;28;20039;-77
2023/09/12 01:54:19;;;;;;;13.13;11.80;;;;;;;23.22;64.81;101214.97;5056547;28;20032;-77
2023/09/12 01:56:45;;;;;;;12.55;11.35;;;;;;;23.19;64.71;101216.22;5051224;28;20103;-77
2023/09/12 01:59:10;;;;;;;14.15;12.65;;;;;;;23.41;64.58;101256.97;5056085;28;20370;-77
2023/09/12 02:01:36;;;;;;;12.43;11.13;;;;;;;23.36;64.39;101243.09;5056619;28;20059;-77
2023/09/12 02:04:01;;;;;;;13.20;11.45;;;;;;;23.41;64.43;101248.81;5074933;28;20031;-77
2023/09/12 02:06:27;;;;;;;13.30;11.93;;;;;;;23.29;64.70;101228.63;5106981;28;20047;-77
2023/09/12 02:08:52;;;;;;;13.73;12.02;;;;;;;23.24;64.44;101226.50;5089792;28;20048;-76
2023/09/12 02:11:17;;;;;;;14.15;12.30;;;;;;;23.36;64.42;101238.53;5106746;28;20551;-77
2023/09/12 02:13:42;;;;;;;13.50;12.10;;;;;;;23.20;64.16;101211.63;5108805;28;20063;-77
2023/09/12 02:16:08;;;;;;;12.77;11.45;;;;;;;23.41;64.22;101243.41;5119833;28;20012;-77
2023/09/12 02:18:33;;;;;;;13.00;11.65;;;;;;;23.23;64.35;101213.94;5118905;28;20028;-77
2023/09/12 02:20:59;;;;;;;13.25;11.82;;;;;;;23.22;64.15;101206.00;5110468;28;20035;-77
2023/09/12 02:23:24;;;;;;;12.60;11.18;;;;;;;23.17;64.35;101204.69;5103277;28;20362;-77
2023/09/12 02:25:49;;;;;;;12.18;10.85;;;;;;;23.30;64.11;101220.28;5108195;28;20028;-77
2023/09/12 02:28:14;;;;;;;12.45;11.23;;;;;;;23.28;64.14;101216.06;5105998;28;20389;-77
2023/09/12 02:30:40;;;;;;;12.38;11.18;;;;;;;23.19;64.16;101199.94;5117076;28;20173;-78
2023/09/12 02:33:06;;;;;;;12.93;11.57;;;;;;;23.41;64.01;101232.53;5107135;28;20066;-77
2023/09/12 02:35:31;;;;;;;11.40;10.30;;;;;;;23.15;64.18;101195.94;5106983;28;20020;-77
2023/09/12 02:37:56;;;;;;;12.18;10.88;;;;;;;23.35;63.97;101226.00;5106801;28;20362;-77
2023/09/12 02:40:22;;;;;;;12.00;10.80;;;;;;;23.41;64.15;101237.97;5108076;28;20058;-77
2023/09/12 02:42:47;;;;;;;11.25;10.13;;;;;;;22.94;63.97;101161.44;5109464;28;20035;-78
2023/09/12 02:45:12;;;;;;;10.98;9.88;;;;;;;23.41;63.97;101235.25;5108273;28;20024;-77
2023/09/12 02:47:37;;;;;;;11.60;10.18;;;;;;;23.10;63.95;101187.50;5113508;28;20035;-77
2023/09/12 02:50:03;;;;;;;11.68;10.48;;;;;;;23.41;64.05;101244.25;5113612;28;20084;-77
2023/09/12 02:52:28;;;;;;;12.20;10.60;;;;;;;23.33;63.94;101238.91;5109912;28;20122;-78
2023/09/12 02:54:53;;;;;;;11.95;10.63;;;;;;;23.35;63.90;101241.44;5107520;28;20015;-76
2023/09/12 02:57:19;;;;;;;10.88;9.88;;;;;;;23.23;64.00;101230.22;5114937;28;20110;-77
2023/09/12 02:59:44;;;;;;;11.88;10.77;;;;;;;23.28;63.97;101237.78;5105886;28;20028;-77
2023/09/12 03:02:09;;;;;;;11.65;10.45;;;;;;;23.30;63.95;101244.72;5108395;28;20374;-77
2023/09/12 03:04:35;;;;;;;12.15;10.82;;;;;;;23.07;63.85;101193.31;5114660;28;20474;-77
2023/09/12 03:07:00;;;;;;;12.25;10.65;;;;;;;23.21;63.76;101224.16;5107054;28;20052;-77
2023/09/12 03:09:26;;;;;;;10.32;9.25;;;;;;;23.40;63.99;101252.53;5117249;28;20072;-77
2023/09/12 03:11:51;;;;;;;10.82;9.73;;;;;;;23.40;63.94;101247.97;5112770;28;20032;-77
2023/09/12 03:14:16;;;;;;;11.70;10.40;;;;;;;23.40;63.87;101249.84;5110455;28;20024;-77
2023/09/12 03:16:42;;;;;;;11.48;10.27;;;;;;;23.36;63.75;101245.81;5119981;28;20223;-77
2023/09/12 03:19:07;;;;;;;10.70;9.60;;;;;;;23.40;63.79;101247.97;5124594;28;20020;-77
2023/09/12 03:21:32;;;;;;;10.93;9.75;;;;;;;23.22;63.93;101225.84;5115137;28;20032;-77
2023/09/12 03:23:57;;;;;;;10.27;9.23;;;;;;;23.40;63.78;101257.97;5107349;28;20028;-76
2023/09/12 03:26:23;;;;;;;10.93;9.77;;;;;;;23.38;63.76;101252.75;5111697;28;20024;-77
2023/09/12 03:28:51;;;;;;;9.88;8.88;;;;;;;23.08;63.86;101202.28;5116500;28;20037;-77
2023/09/12 03:31:18;;;;;;;11.00;9.90;;;;;;;23.26;63.80;101226.28;5115413;28;20032;-77
2023/09/12 03:33:49;;;;;;;10.73;9.25;;;;;;;23.20;63.85;101225.19;5109240;28;20036;-76
2023/09/12 03:36:15;;;;;;;10.88;9.73;;;;;;;23.14;63.82;101213.22;5118576;28;20027;-77
2023/09/12 03:38:40;;;;;;;9.48;8.57;;;;;;;23.39;63.83;101245.44;5124418;28;20016;-77
2023/09/12 03:41:05;;;;;;;9.93;9.00;;;;;;;23.39;63.73;101254.44;5110388;28;20024;-77
2023/09/12 03:43:33;;;;;;;10.07;9.00;;;;;;;23.22;63.83;101223.13;5107584;28;20056;-76
2023/09/12 03:45:58;;;;;;;9.50;8.60;;;;;;;23.27;63.82;101234.22;5113056;28;20028;-77
2023/09/12 03:48:23;;;;;;;9.52;8.38;;;;;;;23.39;63.73;101250.88;5113870;28;20525;-77
2023/09/12 03:50:48;;;;;;;9.57;8.68;;;;;;;23.39;63.66;101251.72;5118712;28;20063;-76
2023/09/12 03:53:14;;;;;;;9.65;8.57;;;;;;;23.39;63.64;101245.44;5113334;28;20054;-77
2023/09/12 03:55:40;;;;;;;9.57;8.65;;;;;;;23.34;63.58;101237.03;5097648;28;20027;-77
2023/09/12 03:58:05;;;;;;;8.60;7.75;;;;;;;23.39;63.63;101232.72;5098939;28;20020;-77
2023/09/12 04:00:30;;;;;;;10.10;8.93;;;;;;;23.39;63.60;101229.16;5111963;28;20772;-77
2023/09/12 04:02:56;;;;;;;8.98;8.07;;;;;;;23.38;63.77;101227.50;5116981;28;20027;-77
2023/09/12 04:05:21;;;;;;;10.13;8.25;;;;;;;23.29;63.83;101210.47;5115591;28;20055;-77
2023/09/12 04:07:46;;;;;;;9.57;8.63;;;;;;;23.38;63.63;101212.03;5110196;28;20052;-77
2023/09/12 04:10:12;;;;;;;8.25;7.43;;;;;;;23.35;63.60;101207.00;5117961;28;20028;-77
2023/09/12 04:12:37;;;;;;;8.48;7.68;;;;;;;23.11;63.38;101170.22;5114418;28;20122;-78
2023/09/12 04:15:03;;;;;;;8.68;7.85;;;;;;;23.32;63.80;101201.09;5120004;27;20027;-77
2023/09/12 04:17:28;;;;;;;8.73;7.93;;;;;;;23.33;63.48;101205.53;5121640;28;20028;-77
2023/09/12 04:19:53;;;;;;;8.93;8.02;;;;;;;23.37;63.54;101214.97;5113902;28;20080;-77
2023/09/12 04:22:19;;;;;;;8.10;7.30;;;;;;;23.27;63.44;101198.13;5109340;28;20043;-77
2023/09/12 04:24:44;;;;;;;9.20;8.30;;;;;;;23.18;63.41;101181.13;5105523;28;20500;-77
2023/09/12 04:27:09;;;;;;;9.00;8.10;;;;;;;23.23;63.64;101183.25;5104976;28;20077;-77
2023/09/12 04:29:35;;;;;;;7.70;7.00;;;;;;;23.38;63.63;101201.19;5110768;28;20057;-77
2023/09/12 04:32:03;;;;;;;9.13;8.23;;;;;;;23.20;63.63;101182.63;5106562;28;20409;-77
2023/09/12 04:34:28;;;;;;;9.05;8.18;;;;;;;23.20;63.45;101173.66;5107089;28;20061;-77
2023/09/12 04:36:53;;;;;;;8.38;7.55;;;;;;;23.12;63.52;101161.03;5111364;28;20088;-77
2023/09/12 04:39:19;;;;;;;8.10;7.35;;;;;;;23.20;63.33;101169.06;5108160;28;20032;-77
2023/09/12 04:41:46;;;;;;;8.00;7.13;;;;;;;23.12;63.40;101154.78;5108759;28;20020;-77
2023/09/12 04:44:11;;;;;;;8.30;7.50;;;;;;;23.16;63.64;101162.34;5108918;28;20024;-77
2023/09/12 04:46:37;;;;;;;8.93;8.02;;;;;;;23.37;63.33;101194.09;5110409;28;20028;-77
2023/09/12 04:49:02;;;;;;;8.20;7.40;;;;;;;23.24;63.55;101177.66;5108879;28;20084;-77
2023/09/12 04:51:28;;;;;;;8.75;7.95;;;;;;;23.27;63.47;101179.97;5111242;28;20063;-77
2023/09/12 04:53:53;;;;;;;8.35;7.55;;;;;;;23.20;63.24;101171.78;5110902;28;20029;-77
2023/09/12 04:56:18;;;;;;;8.90;8.00;;;;;;;23.10;63.23;101151.41;5107332;28;20043;-77
2023/09/12 04:58:44;;;;;;;8.75;7.85;;;;;;;23.24;63.21;101179.53;5114361;28;20024;-77
2023/09/12 05:01:09;;;;;;;8.52;7.60;;;;;;;23.01;63.27;101142.53;5110396;28;20054;-77
2023/09/12 05:03:35;;;;;;;8.57;7.78;;;;;;;23.24;62.92;101180.38;5110209;28;20088;-77
2023/09/12 05:06:00;;;;;;;8.45;7.65;;;;;;;23.37;63.30;101195.97;5110490;28;20081;-77
2023/09/12 05:08:26;;;;;;;8.13;7.38;;;;;;;23.13;63.11;101156.44;5110011;28;20047;-77
2023/09/12 05:10:51;;;;;;;8.65;7.80;;;;;;;23.37;63.19;101190.53;5110183;28;20095;-77
2023/09/12 05:13:17;;;;;;;8.57;7.25;;;;;;;23.19;62.86;101161.09;5112323;28;20031;-77
2023/09/12 05:15:43;;;;;;;8.05;7.32;;;;;;;23.31;63.08;101188.56;5112071;27;20072;-77
2023/09/12 05:18:08;;;;;;;7.88;7.18;;;;;;;23.14;63.05;101160.84;5110004;28;20054;-77
2023/09/12 05:20:34;;;;;;;8.23;7.43;;;;;;;23.37;62.94;101212.25;5113114;28;20024;-77
2023/09/12 05:22:59;;;;;;;7.60;6.90;;;;;;;23.27;62.95;101207.09;5108591;28;20098;-77
2023/09/12 05:25:26;;;;;;;7.43;6.72;;;;;;;23.24;63.02;101198.53;5112851;28;20540;-77
2023/09/12 05:27:52;;;;;;;7.40;6.70;;;;;;;23.19;63.07;101191.81;5104473;28;20092;-77
2023/09/12 05:30:17;;;;;;;7.35;6.65;;;;;;;23.09;63.03;101184.97;5108406;28;20032;-77
2023/09/12 05:32:42;;;;;;;8.25;6.78;;;;;;;22.70;62.67;101126.47;5113643;28;20032;-77
2023/09/12 05:35:08;;;;;;;9.77;6.97;;;;;;;22.86;62.86;101147.97;5119999;28;20030;-77
2023/09/12 05:37:33;;;;;;;7.68;6.97;;;;;;;22.95;62.69;101176.69;5120678;28;20087;-78
2023/09/12 05:39:58;;;;;;;7.07;6.43;;;;;;;23.36;62.79;101246.69;5115793;28;20024;-77
2023/09/12 05:42:24;;;;;;;6.93;6.22;;;;;;;23.12;62.89;101198.16;5113381;28;20031;-77
2023/09/12 05:44:51;;;;;;;7.15;6.55;;;;;;;23.36;63.01;101234.97;5105101;28;20069;-77
2023/09/12 05:47:17;;;;;;;6.63;6.03;;;;;;;23.17;62.75;101217.44;5120684;28;20031;-76
2023/09/12 05:49:42;;;;;;;6.75;6.10;;;;;;;23.05;62.68;101200.78;5104074;28;20078;-78
2023/09/12 05:52:07;;;;;;;7.03;6.38;;;;;;;23.21;62.69;101229.59;5105510;28;20099;-77
2023/09/12 05:54:33;;;;;;;6.68;5.97;;;;;;;23.10;62.56;101205.63;5105938;28;20047;-77
2023/09/12 05:56:58;;;;;;;7.28;6.57;;;;;;;23.02;62.62;101203.88;5113486;28;20034;-77
2023/09/12 05:59:23;;;;;;;6.53;5.93;;;;;;;23.09;62.43;101221.06;5113475;28;20039;-77
2023/09/12 06:01:49;;;;;;;7.03;6.28;;;;;;;23.04;62.87;101201.00;5116266;28;20019;-77
2023/09/12 06:04:14;;;;;;;6.28;5.68;;;;;;;23.14;62.54;101221.34;5120724;28;20028;-77
2023/09/12 06:06:40;;;;;;;6.57;5.88;;;;;;;23.12;62.63;101223.41;5110408;28;20027;-77
2023/09/12 06:09:05;;;;;;;7.78;6.13;;;;;;;23.06;62.58;101212.47;5108000;28;20142;-77
2023/09/12 06:11:31;;;;;;;6.72;6.03;;;;;;;23.06;62.55;101210.59;5108224;28;20036;-77
2023/09/12 06:13:56;;;;;;;6.68;6.07;;;;;;;23.22;62.53;101239.41;5116658;28;20104;-77
2023/09/12 06:16:22;;;;;;;7.60;5.93;;;;;;;23.35;62.65;101265.84;5112372;28;20034;-77
2023/09/12 06:18:48;;;;;;;6.40;5.78;;;;;;;23.36;62.45;101256.66;5106719;28;20019;-77
2023/09/12 06:21:14;;;;;;;6.03;5.45;;;;;;;23.35;62.57;101258.53;5100036;28;20047;-76
2023/09/12 06:23:39;;;;;;;6.15;5.55;;;;;;;23.34;62.47;101259.59;5110922;28;20114;-76
2023/09/12 06:26:04;;;;;;;6.90;6.20;;;;;;;23.35;62.51;101260.44;5107526;28;20090;-77
2023/09/12 06:28:31;;;;;;;6.72;6.07;;;;;;;23.25;62.41;101249.03;5118671;28;20024;-77
2023/09/12 06:30:59;;;;;;;6.53;5.93;;;;;;;23.18;62.51;101238.94;5109435;28;20373;-75
2023/09/12 06:33:25;;;;;;;;;;;;;;;23.35;62.65;101266.69;5107414;28;20035;-75
2023/09/12 06:35:52;;;;;;;5.65;5.13;;;;;;;23.08;62.84;101229.41;5102836;28;19912;-75
2023/09/12 06:38:18;;;;;;;7.32;6.63;;;;;;;23.33;62.50;101276.06;5103755;28;20099;-75
2023/09/12 06:40:43;;;;;;;8.88;7.97;;;;;;;23.32;62.55;101279.78;5107339;28;20051;-77
2023/09/12 06:43:08;;;;;;;9.63;8.63;;;;;;;23.35;62.60;101274.00;5105737;28;20020;-77
2023/09/12 06:45:36;;;;;;;10.55;9.43;;;;;;;23.22;62.80;101262.97;5119178;28;20432;-77
2023/09/12 06:48:02;;;;;;;10.10;8.77;;;;;;;23.06;62.63;101243.16;5108163;28;20021;-77
2023/09/12 06:50:27;;;;;;;9.95;8.45;;;;;;;23.22;62.55;101262.97;5120123;28;20028;-77
2023/09/12 06:52:52;;;;;;;10.65;9.30;;;;;;;23.34;62.64;101280.44;5099958;28;20032;-76
2023/09/12 06:55:18;;;;;;;12.98;9.02;;;;;;;23.35;62.49;101282.13;5118624;28;20035;-78
2023/09/12 06:57:43;;;;;;;12.88;9.35;;;;;;;23.22;62.74;101271.94;5108445;28;20016;-78
2023/09/12 07:00:09;;;;;;;12.40;9.80;;;;;;;23.11;62.69;101256.16;5104650;28;20424;-78
2023/09/12 07:02:35;;;;;;;11.48;9.93;;;;;;;23.28;62.89;101281.19;5119993;28;20020;-79
2023/09/12 07:05:00;;;;;;;11.35;10.10;;;;;;;23.16;62.98;101261.88;5102547;28;20020;-78
2023/09/12 07:07:25;;;;;;;11.68;10.32;;;;;;;23.09;62.77;101250.06;5118481;28;20034;-76
2023/09/12 07:09:51;;;;;;;11.98;10.27;;;;;;;23.18;63.03;101273.34;5112287;28;20381;-77
2023/09/12 07:12:16;;;;;;;13.60;11.20;;;;;;;23.29;62.81;101294.59;5102421;28;20024;-76
2023/09/12 07:14:41;;;;;;;13.35;11.10;;;;;;;23.11;63.09;101265.16;5121451;28;20523;-77
2023/09/12 07:17:07;;;;;;;12.80;10.60;;;;;;;23.17;63.11;101272.50;5119875;28;20074;-77
2023/09/12 07:19:32;;;;;;;15.38;12.32;;;;;;;23.35;63.20;101295.69;5107974;28;20028;-77
2023/09/12 07:21:58;;;;;;;12.43;10.85;;;;;;;23.08;63.20;101248.41;5120276;28;20031;-77
2023/09/12 07:24:27;;;;;;;13.40;11.82;;;;;;;23.34;63.13;101291.31;5110041;28;20028;-77
2023/09/12 07:26:52;;;;;;;12.70;11.20;;;;;;;23.19;63.26;101277.75;5106724;28;20031;-77
2023/09/12 07:29:17;;;;;;;15.52;12.88;;;;;;;23.27;63.33;101287.66;5102460;28;20091;-78
2023/09/12 07:31:43;;;;;;;16.00;12.68;;;;;;;23.32;63.21;101291.50;5113870;28;20027;-77
2023/09/12 07:34:09;;;;;;;14.90;12.95;;;;;;;22.92;63.22;101225.84;5104664;28;20031;-76
2023/09/12 07:36:34;;;;;;;15.57;13.25;;;;;;;23.24;63.36;101277.22;5123378;28;20031;-77
2023/09/12 07:39:00;;;;;;;16.27;13.77;;;;;;;23.30;63.19;101293.56;5114943;28;20036;-77
2023/09/12 07:41:25;;;;;;;14.57;12.38;;;;;;;23.30;63.20;101288.13;5109671;28;20024;-77
2023/09/12 07:43:51;;;;;;;15.18;12.52;;;;;;;23.13;63.38;101259.53;5117897;28;20031;-77
2023/09/12 07:46:16;;;;;;;14.80;12.68;;;;;;;23.15;63.36;101269.16;5104997;28;20024;-78
2023/09/12 07:48:41;;;;;;;16.13;13.75;;;;;;;23.22;63.45;101284.66;5110089;28;20037;-77
2023/09/12 07:51:17;;;;;;;16.77;14.38;;;;;;;23.28;63.45;101287.50;5122442;28;20035;-75
2023/09/12 07:53:43;;;;;;;15.68;13.35;;;;;;;23.20;63.31;101271.31;5113155;28;20031;-76
2023/09/12 07:56:10;;;;;;;17.17;14.30;;;;;;;23.16;63.44;101267.28;5122116;28;20035;-75
2023/09/12 07:58:35;;;;;;;16.13;12.82;;;;;;;22.99;63.24;101241.41;5116927;28;20031;-75
2023/09/12 08:01:08;;;;;;;15.65;13.63;;;;;;;23.30;63.39;101290.00;5121817;28;20038;-75
2023/09/12 08:03:34;;;;;;;17.67;13.95;;;;;;;23.25;63.54;101293.28;5121825;28;20087;-75
2023/09/12 08:06:00;;;;;;;17.88;13.90;;;;;;;23.09;63.47;101266.34;5115465;28;20019;-78
2023/09/12 08:08:25;;;;;;;17.17;14.90;;;;;;;23.04;63.62;101250.63;5109101;28;20055;-74
2023/09/12 08:10:51;;;;;;;16.10;13.27;;;;;;;23.13;63.46;101259.53;5117587;28;20102;-74
2023/09/12 08:13:16;;;;;;;16.80;13.35;;;;;;;23.12;63.46;101264.09;5114521;28;20027;-74
2023/09/12 08:15:41;;;;;;;16.77;13.55;;;;;;;23.31;63.62;101283.53;5118262;27;20028;-74
2023/09/12 08:18:07;;;;;;;16.92;13.75;;;;;;;23.14;63.70;101267.47;5117527;28;20039;-74
2023/09/12 08:20:32;;;;;;;18.17;13.95;;;;;;;23.28;63.78;101287.50;5114296;28;20487;-74
2023/09/12 08:22:57;;;;;;;16.52;14.07;;;;;;;23.06;63.95;101250.44;5109501;28;20084;-74
2023/09/12 08:25:24;;;;;;;16.52;14.07;;;;;;;23.28;63.77;101282.06;5120990;28;20083;-74
2023/09/12 08:27:49;;;;;;;18.65;15.75;;;;;;;23.05;63.99;101235.19;5123613;28;20020;-75
2023/09/12 08:30:15;;;;;;;16.70;14.30;;;;;;;23.05;63.83;101246.88;5114017;28;20031;-74
2023/09/12 08:32:43;;;;;;;18.05;14.60;;;;;;;23.05;63.76;101257.75;5119976;28;20024;-74
2023/09/12 08:35:10;;;;;;;17.23;13.80;;;;;;;23.15;64.11;101271.88;5111015;28;20016;-74
2023/09/12 08:37:35;;;;;;;19.13;15.05;;;;;;;23.13;64.12;101263.06;5113909;28;20027;-74
2023/09/12 08:40:01;;;;;;;18.52;15.05;;;;;;;23.22;64.07;101281.97;5117591;28;20120;-74
2023/09/12 08:42:27;;;;;;;17.95;15.32;;;;;;;23.27;64.18;101284.94;5108300;28;20041;-74
2023/09/12 08:44:53;;;;;;;18.42;14.77;;;;;;;23.28;64.28;101294.75;5108018;28;20020;-74
2023/09/12 08:47:19;;;;;;;18.00;14.65;;;;;;;23.15;64.35;101271.00;5106659;28;20074;-74
2023/09/12 08:49:44;;;;;;;21.00;14.40;;;;;;;22.84;64.43;101223.22;5107264;28;20107;-74
2023/09/12 08:52:10;;;;;;;18.50;14.90;;;;;;;23.05;64.51;101265.88;5110931;28;20024;-75
2023/09/12 08:54:35;;;;;;;19.90;15.60;;;;;;;23.28;64.51;101301.06;5105884;28;20034;-74
2023/09/12 08:57:05;;;;;;;23.17;16.45;;;;;;;23.30;64.45;101298.13;5107313;28;20113;-74
2023/09/12 08:59:34;;;;;;;19.08;14.98;;;;;;;23.18;64.33;101286.91;5110010;28;20032;-74
2023/09/12 09:01:59;;;;;;;;;;;;;;;23.31;64.67;101302.53;5107823;28;20064;-74
2023/09/12 09:04:28;;;;;;;16.98;13.68;;;;;;;23.24;64.64;101291.59;5120770;28;19984;-74
2023/09/12 09:06:54;;;;;;;18.10;14.15;;;;;;;23.32;64.57;101310.50;5107814;28;20092;-75
2023/09/12 09:09:19;;;;;;;17.65;14.77;;;;;;;23.32;64.59;101301.50;5104819;28;20043;-76
2023/09/12 09:11:45;;;;;;;17.08;14.40;;;;;;;23.18;64.46;101276.91;5102516;28;20028;-74
2023/09/12 09:14:10;;;;;;;17.52;14.07;;;;;;;23.33;64.89;101305.91;5114341;27;20392;-75
2023/09/12 09:16:35;;;;;;;16.15;13.13;;;;;;;23.26;64.59;101303.09;5104033;28;20031;-75
2023/09/12 09:19:04;;;;;;;15.20;12.82;;;;;;;23.27;64.68;101293.09;5111247;28;20026;-74
2023/09/12 09:21:31;;;;;;;16.75;13.73;;;;;;;23.31;64.48;101303.38;5115185;28;20101;-74
2023/09/12 09:24:04;;;;;;;16.10;12.07;;;;;;;23.22;64.50;101281.97;5108013;28;20034;-74
2023/09/12 09:26:50;;;;;;;16.23;12.90;;;;;;;23.37;64.39;101305.34;5111816;28;20035;-74
2023/09/12 09:29:17;;;;;;;15.35;12.02;;;;;;;23.39;64.42;101305.16;5112137;28;20028;-74
2023/09/12 09:31:44;;;;;;;13.55;11.38;;;;;;;23.27;64.23;101283.06;5107466;28;20031;-75
2023/09/12 09:34:15;;;;;;;15.45;11.70;;;;;;;23.40;64.17;101309.53;5112759;28;20031;-74
2023/09/12 09:36:42;;;;;;;13.82;11.35;;;;;;;23.29;64.00;101291.88;5119510;28;20469;-74
2023/09/12 09:39:07;;;;;;;15.77;12.32;;;;;;;23.16;64.04;101265.41;5109025;28;20028;-74
2023/09/12 09:41:33;;;;;;;15.45;11.65;;;;;;;23.35;64.09;101293.81;5118292;28;20024;-74
2023/09/12 09:43:59;;;;;;;10.82;9.73;;;;;;;23.34;64.02;101294.03;5117478;28;20074;-74
2023/09/12 09:46:25;;;;;;;12.43;10.38;;;;;;;23.23;64.12;101273.63;5104688;28;20024;-74
2023/09/12 09:48:51;;;;;;;12.02;10.40;;;;;;;23.44;63.80;101308.13;5104498;28;20092;-74
2023/09/12 09:51:16;;;;;;;11.73;9.90;;;;;;;23.30;63.68;101284.56;5090330;28;20087;-74
2023/09/12 09:53:43;;;;;;;13.15;10.40;;;;;;;23.35;63.63;101296.53;5115851;28;20031;-74
2023/09/12 09:56:13;;;;;;;11.40;9.40;;;;;;;23.45;63.63;101307.13;5114242;28;20028;-74
2023/09/12 09:58:51;;;;;;;10.25;8.63;;;;;;;23.47;63.68;101301.50;5112854;28;20066;-74
2023/09/12 10:01:21;;;;;;;10.40;8.43;;;;;;;23.47;63.47;101313.19;5120252;28;20019;-74
2023/09/12 10:03:51;;;;;;;9.38;8.40;;;;;;;23.47;63.51;101305.03;5114294;28;20028;-74
2023/09/12 10:06:18;;;;;;;8.48;7.60;;;;;;;23.21;63.63;101278.41;5107914;28;20025;-74
2023/09/12 10:08:50;;;;;;;10.63;8.73;;;;;;;23.48;63.70;101320.28;5116454;28;20138;-74
2023/09/12 10:11:16;;;;;;;9.73;7.65;;;;;;;23.49;63.67;101321.13;5108581;28;20028;-74
2023/09/12 10:13:47;;;;;;;9.15;7.35;;;;;;;23.50;63.47;101325.53;5122299;27;20039;-76
2023/09/12 10:16:13;;;;;;;9.48;7.35;;;;;;;23.32;63.32;101301.50;5119466;28;20028;-75
2023/09/12 10:18:59;;;;;;;;;;;;;;;;;;;;;
2023/09/12 10:22:10;;;;;;;9.75;7.40;;;;;;;23.53;63.81;101326.00;5115044;28;20039;-75
2023/09/12 10:24:36;;;;;;;8.90;7.97;;;;;;;23.54;63.56;101330.41;5104965;28;20627;-75
2023/09/12 10:27:05;;;;;;;9.02;7.68;;;;;;;23.54;63.64;101333.13;5122185;28;20044;-75
2023/09/12 10:29:31;;;;;;;10.90;7.18;;;;;;;23.56;63.61;101332.91;5115650;28;20035;-76
2023/09/12 10:31:56;;;;;;;10.85;6.20;;;;;;;23.29;63.78;101286.44;5111027;28;20095;-75
2023/09/12 10:34:24;;;;;;;9.82;6.07;;;;;;;23.41;63.59;101311.25;5110893;28;20049;-76
2023/09/12 10:36:49;;;;;;;7.65;6.40;;;;;;;23.36;63.71;101300.97;5114549;28;20089;-75
2023/09/12 10:39:15;;;;;;;6.57;5.78;;;;;;;23.32;63.59;101296.94;5110102;28;20028;-76
2023/09/12 10:41:41;;;;;;;6.00;5.38;;;;;;;23.57;63.78;101332.72;5120775;28;20026;-76
2023/09/12 10:44:17;;;;;;;6.32;5.40;;;;;;;23.47;63.51;101296.06;5114565;28;20255;-76
2023/09/12 10:46:44;;;;;;;6.28;5.43;;;;;;;23.51;63.57;101308.22;5106088;28;20052;-76
2023/09/12 10:49:11;;;;;;;7.72;5.85;;;;;;;23.43;63.58;101292.88;5117626;28;20034;-75
2023/09/12 10:51:44;;;;;;;6.75;5.47;;;;;;;23.66;63.59;101322.63;5110501;28;20073;-76
2023/09/12 10:54:41;;;;;;;6.00;5.40;;;;;;;23.50;63.70;101295.69;5107770;28;20031;-75
2023/09/12 10:57:08;;;;;;;6.50;5.40;;;;;;;23.68;63.64;101323.28;5108317;28;20563;-76
2023/09/12 10:59:37;;;;;;;6.22;5.38;;;;;;;23.67;63.59;101313.47;5103357;28;20060;-75
2023/09/12 11:02:31;;;;;;;8.13;6.13;;;;;;;23.68;63.63;101301.56;5107133;28;20020;-76
2023/09/12 11:04:57;;;;;;;5.80;5.18;;;;;;;23.69;63.48;101303.25;5105508;28;20031;-76
2023/09/12 11:07:38;;;;;;;6.00;5.10;;;;;;;23.71;63.75;101305.78;5113736;28;20038;-75
2023/09/12 11:10:16;;;;;;;7.35;5.10;;;;;;;23.73;63.72;101307.28;5113388;28;20020;-76
2023/09/12 11:12:42;;;;;;;6.10;5.50;;;;;;;23.67;63.63;101299.91;5110207;28;20035;-76
2023/09/12 11:15:08;;;;;;;7.85;5.38;;;;;;;23.59;63.66;101291.84;5117334;27;20016;-76